createdAt,value
2019-05-26T00:01:51.534Z,11.00
2019-05-26T00:04:21.852Z,10.43
2019-05-26T00:06:52.191Z,11.67
2019-05-26T00:09:22.544Z,11.80
2019-05-26T00:11:52.935Z,10.33
2019-05-26T00:14:23.252Z,11.77
2019-05-26T00:16:53.683Z,12.50
2019-05-26T00:19:23.996Z,13.77
2019-05-26T00:21:54.332Z,11.63
2019-05-26T00:24:24.623Z,13.40
2019-05-26T00:26:54.951Z,14.00
2019-05-26T00:29:25.278Z,11.47
2019-05-26T00:31:55.592Z,11.93
2019-05-26T00:34:25.925Z,11.23
2019-05-26T00:36:56.467Z,10.90
2019-05-26T00:39:26.778Z,11.43
2019-05-26T00:41:57.091Z,10.60
2019-05-26T00:44:27.383Z,10.10
2019-05-26T00:46:57.726Z,11.43
2019-05-26T00:49:28.029Z,10.93
2019-05-26T00:51:58.350Z,13.20
2019-05-26T00:54:28.654Z,13.13
2019-05-26T00:56:58.966Z,12.03
2019-05-26T00:59:29.271Z,11.13
2019-05-26T01:01:59.598Z,10.73
2019-05-26T01:04:29.893Z,11.63
2019-05-26T01:07:00.239Z,11.13
2019-05-26T01:09:30.561Z,10.30
2019-05-26T01:12:00.921Z,15.70
2019-05-26T01:14:31.232Z,11.00
2019-05-26T01:17:01.590Z,9.63
2019-05-26T01:19:31.916Z,11.97
2019-05-26T01:22:02.272Z,10.73
2019-05-26T01:24:32.583Z,10.50
2019-05-26T01:27:02.959Z,11.27
2019-05-26T01:29:33.267Z,12.43
2019-05-26T01:32:03.579Z,12.90
2019-05-26T01:34:33.937Z,14.20
2019-05-26T01:37:05.218Z,12.57
2019-05-26T01:39:35.567Z,14.30
2019-05-26T01:42:05.902Z,13.20
2019-05-26T01:44:36.223Z,14.03
2019-05-26T01:47:06.535Z,14.30
2019-05-26T01:49:36.870Z,12.23
2019-05-26T01:52:07.192Z,11.77
2019-05-26T01:54:40.710Z,14.30
2019-05-26T01:57:09.563Z,12.53
2019-05-26T01:59:39.892Z,18.27
2019-05-26T02:02:10.200Z,13.60
2019-05-26T02:04:40.833Z,11.20
2019-05-26T02:07:11.139Z,13.03
2019-05-26T02:09:41.375Z,11.33
2019-05-26T02:12:11.690Z,11.33
2019-05-26T02:14:42.022Z,12.00
2019-05-26T02:17:12.330Z,10.63
2019-05-26T02:19:42.627Z,11.03
2019-05-26T02:22:12.942Z,12.27
2019-05-26T02:24:43.276Z,11.07
2019-05-26T02:27:13.633Z,12.43
2019-05-26T02:29:43.971Z,11.60
2019-05-26T02:32:14.302Z,11.00
2019-05-26T02:34:44.613Z,10.50
2019-05-26T02:37:14.920Z,10.30
2019-05-26T02:39:45.251Z,11.23
2019-05-26T02:42:15.549Z,13.20
2019-05-26T02:44:45.885Z,14.23
2019-05-26T02:47:16.537Z,10.77
2019-05-26T02:49:46.919Z,11.30
2019-05-26T02:52:17.213Z,10.77
2019-05-26T02:54:47.549Z,10.90
2019-05-26T02:57:17.866Z,13.43
2019-05-26T02:59:48.343Z,11.33
2019-05-26T03:02:18.651Z,13.57
2019-05-26T03:04:49.465Z,13.03
2019-05-26T03:07:21.220Z,13.63
2019-05-26T03:09:52.463Z,11.57
2019-05-26T03:12:24.285Z,11.63
2019-05-26T03:14:57.018Z,14.80
2019-05-26T03:17:30.392Z,12.47
2019-05-26T03:20:03.235Z,10.78
2019-05-26T03:22:35.312Z,12.87
2019-05-26T03:25:06.150Z,13.47
2019-05-26T03:27:36.464Z,12.58
2019-05-26T03:30:06.956Z,14.67
2019-05-26T03:32:37.248Z,11.70
2019-05-26T03:35:09.302Z,11.20
2019-05-26T03:37:39.678Z,12.70
2019-05-26T03:40:10.510Z,13.50
2019-05-26T03:42:40.830Z,11.78
2019-05-26T03:45:14.157Z,11.33
2019-05-26T03:47:44.461Z,13.50
2019-05-26T03:50:14.790Z,11.73
2019-05-26T03:52:45.125Z,11.65
2019-05-26T03:55:15.477Z,12.13
2019-05-26T03:57:45.793Z,11.78
2019-05-26T04:00:16.197Z,12.00
2019-05-26T04:02:46.547Z,12.37
2019-05-26T04:05:16.931Z,12.15
2019-05-26T04:07:47.282Z,12.30
2019-05-26T04:10:17.900Z,10.53
2019-05-26T04:12:48.226Z,9.67
2019-05-26T04:15:18.535Z,10.77
2019-05-26T04:17:48.869Z,10.50
2019-05-26T04:20:19.178Z,10.15
2019-05-26T04:22:49.508Z,10.30
2019-05-26T04:25:19.931Z,9.55
2019-05-26T04:27:50.509Z,11.13
2019-05-26T04:30:20.840Z,11.90
2019-05-26T04:32:51.168Z,10.50
2019-05-26T04:35:21.485Z,11.22
2019-05-26T04:37:51.837Z,13.93
2019-05-26T04:40:26.943Z,11.00
2019-05-26T04:42:54.175Z,12.63
2019-05-26T04:45:24.512Z,13.15
2019-05-26T04:47:54.943Z,11.57
2019-05-26T04:50:25.256Z,11.15
2019-05-26T04:53:05.975Z,11.50
2019-05-26T04:55:27.617Z,11.87
2019-05-26T04:57:57.955Z,11.60
2019-05-26T05:00:28.322Z,11.13
2019-05-26T05:02:58.672Z,11.97
2019-05-26T05:05:28.992Z,12.63
2019-05-26T05:07:59.339Z,13.20
2019-05-26T05:10:41.723Z,12.53
2019-05-26T05:13:01.825Z,12.17
2019-05-26T05:15:32.139Z,13.40
2019-05-26T05:18:02.517Z,13.07
2019-05-26T05:20:32.815Z,12.70
2019-05-26T05:23:03.168Z,11.60
2019-05-26T05:25:33.519Z,12.63
2019-05-26T05:28:04.051Z,13.50
2019-05-26T05:30:34.373Z,12.20
2019-05-26T05:33:04.867Z,11.97
2019-05-26T05:35:35.175Z,9.90
2019-05-26T05:38:05.523Z,10.67
2019-05-26T05:40:35.759Z,10.93
2019-05-26T05:43:06.219Z,10.50
2019-05-26T05:45:36.726Z,11.13
2019-05-26T05:48:07.128Z,11.03
2019-05-26T05:50:39.266Z,11.07
2019-05-26T05:53:09.715Z,11.00
2019-05-26T05:55:40.191Z,10.07
2019-05-26T05:58:10.622Z,11.17
2019-05-26T06:00:40.974Z,9.57
2019-05-26T06:03:11.399Z,9.43
2019-05-26T06:05:41.716Z,10.77
2019-05-26T06:08:12.106Z,9.20
2019-05-26T06:10:42.518Z,8.50
2019-05-26T06:13:12.852Z,10.20
2019-05-26T06:15:43.201Z,8.37
2019-05-26T06:18:13.536Z,9.40
2019-05-26T06:20:43.836Z,7.43
2019-05-26T06:23:14.295Z,7.97
2019-05-26T06:25:44.671Z,9.27
2019-05-26T06:28:14.989Z,8.13
2019-05-26T06:30:45.354Z,7.67
2019-05-26T06:33:15.970Z,8.17
2019-05-26T06:35:46.353Z,7.17
2019-05-26T06:38:16.732Z,7.30
2019-05-26T06:40:47.055Z,8.13
2019-05-26T06:43:17.539Z,8.27
2019-05-26T06:45:47.855Z,8.30
2019-05-26T06:48:18.196Z,6.77
2019-05-26T06:50:48.535Z,7.20
2019-05-26T06:53:18.995Z,7.67
2019-05-26T06:55:49.324Z,6.80
2019-05-26T06:58:19.807Z,6.80
2019-05-26T07:00:50.123Z,7.50
2019-05-26T07:03:20.660Z,8.30
2019-05-26T07:05:50.970Z,6.83
2019-05-26T07:08:21.311Z,6.50
2019-05-26T07:10:51.625Z,6.17
2019-05-26T07:13:22.009Z,6.33
2019-05-26T07:15:52.228Z,7.03
2019-05-26T07:18:22.678Z,6.13
2019-05-26T07:20:52.984Z,8.17
2019-05-26T07:23:23.344Z,6.70
2019-05-26T07:25:53.668Z,6.80
2019-05-26T07:28:24.039Z,6.60
2019-05-26T07:30:54.453Z,6.50
2019-05-26T07:33:24.988Z,7.80
2019-05-26T07:35:55.383Z,6.57
2019-05-26T07:38:25.766Z,7.83
2019-05-26T07:40:56.078Z,6.00
2019-05-26T07:43:28.165Z,7.90
2019-05-26T07:45:58.423Z,6.43
2019-05-26T07:48:28.776Z,6.40
2019-05-26T07:50:59.079Z,6.47
2019-05-26T07:53:29.495Z,6.73
2019-05-26T07:55:59.810Z,6.80
2019-05-26T07:58:30.153Z,6.40
2019-05-26T08:01:00.477Z,6.50
2019-05-26T08:03:30.872Z,5.90
2019-05-26T08:06:01.181Z,6.57
2019-05-26T08:08:31.738Z,6.13
2019-05-26T08:11:02.036Z,6.20
2019-05-26T08:13:32.481Z,5.13
2019-05-26T08:16:02.835Z,5.60
2019-05-26T08:18:33.255Z,6.20
2019-05-26T08:21:03.560Z,5.83
2019-05-26T08:23:33.894Z,5.53
2019-05-26T08:26:04.496Z,5.97
2019-05-26T08:28:34.836Z,7.80
2019-05-26T08:31:05.143Z,7.00
2019-05-26T08:33:35.499Z,8.73
2019-05-26T08:36:05.924Z,8.03
2019-05-26T08:38:36.260Z,6.43
2019-05-26T08:41:06.558Z,5.90
2019-05-26T08:43:36.952Z,6.73
2019-05-26T08:46:07.451Z,6.30
2019-05-26T08:48:37.806Z,5.20
2019-05-26T08:51:08.175Z,5.30
2019-05-26T08:53:38.535Z,6.33
2019-05-26T08:56:08.936Z,6.30
2019-05-26T08:58:39.289Z,6.30
2019-05-26T09:01:09.523Z,5.00
2019-05-26T09:03:40.239Z,3.93
2019-05-26T09:06:10.616Z,4.47
2019-05-26T09:08:41.192Z,4.43
2019-05-26T09:11:11.577Z,4.00
2019-05-26T09:13:41.980Z,4.90
2019-05-26T09:16:12.385Z,3.40
2019-05-26T09:18:42.778Z,3.40
2019-05-26T09:21:13.383Z,4.30
2019-05-26T09:23:43.775Z,4.27
2019-05-26T09:26:14.163Z,2.60
2019-05-26T09:28:44.551Z,3.57
2019-05-26T09:31:15.295Z,4.43
2019-05-26T09:33:45.652Z,3.70
2019-05-26T09:36:16.015Z,3.73
2019-05-26T09:38:46.558Z,4.10
2019-05-26T09:41:16.889Z,3.37
2019-05-26T09:43:47.261Z,3.03
2019-05-26T09:46:17.632Z,3.17
2019-05-26T09:48:47.971Z,2.63
2019-05-26T09:51:18.511Z,2.80
2019-05-26T09:54:00.846Z,2.77
2019-05-26T09:56:21.037Z,3.83
2019-05-26T09:58:51.474Z,2.30
2019-05-26T10:01:21.939Z,4.33
2019-05-26T10:03:52.376Z,3.30
2019-05-26T10:06:22.689Z,4.07
2019-05-26T10:08:53.041Z,2.57
2019-05-26T10:11:23.503Z,3.10
2019-05-26T10:13:53.968Z,2.77
2019-05-26T10:16:24.683Z,2.00
2019-05-26T10:18:55.016Z,2.03
2019-05-26T10:21:26.222Z,2.30
2019-05-26T10:23:56.627Z,2.93
2019-05-26T10:26:26.984Z,2.07
2019-05-26T10:29:00.541Z,2.13
2019-05-26T10:31:29.450Z,2.00
2019-05-26T10:33:59.819Z,2.70
2019-05-26T10:36:30.248Z,4.20
2019-05-26T10:39:00.551Z,2.40
2019-05-26T10:41:30.915Z,2.60
2019-05-26T10:44:01.287Z,2.57
2019-05-26T10:46:31.763Z,2.20
2019-05-26T10:49:02.083Z,2.37
2019-05-26T10:51:32.470Z,3.43
2019-05-26T10:54:02.787Z,25.77
2019-05-26T10:56:33.148Z,3.23
2019-05-26T10:59:03.498Z,2.90
2019-05-26T11:01:33.864Z,3.03
2019-05-26T11:04:04.566Z,2.20
2019-05-26T11:06:53.959Z,2.90
2019-05-26T11:09:24.299Z,2.13
2019-05-26T11:11:54.884Z,2.30
2019-05-26T11:14:25.191Z,3.73
2019-05-26T11:16:55.566Z,3.57
2019-05-26T11:19:25.809Z,4.80
2019-05-26T11:21:56.131Z,3.50
2019-05-26T11:24:26.433Z,2.97
2019-05-26T11:27:07.050Z,3.60
2019-05-26T11:29:28.749Z,3.83
2019-05-26T11:31:59.092Z,3.80
2019-05-26T11:34:29.415Z,2.90
2019-05-26T11:36:59.890Z,3.83
2019-05-26T11:39:30.229Z,3.13
2019-05-26T11:42:12.764Z,3.40
2019-05-26T11:44:32.606Z,4.37
2019-05-26T11:47:02.974Z,2.90
2019-05-26T11:49:33.318Z,3.43
2019-05-26T11:52:03.761Z,4.87
2019-05-26T11:54:34.767Z,4.27
2019-05-26T11:57:05.470Z,4.90
2019-05-26T11:59:36.046Z,3.70
2019-05-26T12:02:06.555Z,3.97
2019-05-26T12:04:38.059Z,4.53
2019-05-26T12:07:08.435Z,4.50
2019-05-26T12:09:38.759Z,4.47
2019-05-26T12:12:09.211Z,4.30
2019-05-26T12:14:39.568Z,3.93
2019-05-26T12:17:09.957Z,3.10
2019-05-26T12:19:40.318Z,4.23
2019-05-26T12:22:10.725Z,3.70
2019-05-26T12:24:41.236Z,3.53
2019-05-26T12:27:11.613Z,3.97
2019-05-26T12:29:42.025Z,3.60
2019-05-26T12:32:12.447Z,7.43
2019-05-26T12:34:42.783Z,3.83
2019-05-26T12:37:13.145Z,3.50
2019-05-26T12:39:43.540Z,3.57
2019-05-26T12:42:16.895Z,3.13
2019-05-26T12:44:49.486Z,5.07
2019-05-26T12:47:18.259Z,3.50
2019-05-26T12:49:48.611Z,3.40
2019-05-26T12:52:19.082Z,3.60
2019-05-26T12:54:49.458Z,3.10
2019-05-26T12:57:19.875Z,3.20
2019-05-26T12:59:50.223Z,2.73
2019-05-26T13:02:20.614Z,2.57
2019-05-26T13:04:51.033Z,2.80
2019-05-26T13:07:21.391Z,2.60
2019-05-26T13:09:51.734Z,2.87
2019-05-26T13:12:22.175Z,2.60
2019-05-26T13:15:05.536Z,2.23
2019-05-26T13:17:24.943Z,3.00
2019-05-26T13:19:55.328Z,1.90
2019-05-26T13:22:25.805Z,1.93
2019-05-26T13:24:56.144Z,2.10
2019-05-26T13:27:26.679Z,1.83
2019-05-26T13:29:57.229Z,3.00
2019-05-26T13:32:27.599Z,2.10
2019-05-26T13:34:57.943Z,1.80
2019-05-26T13:37:28.285Z,2.17
2019-05-26T13:39:58.812Z,2.00
2019-05-26T13:42:29.124Z,1.70
2019-05-26T13:44:59.559Z,1.70
2019-05-26T13:47:29.883Z,1.47
2019-05-26T13:50:00.355Z,3.20
2019-05-26T13:52:30.785Z,1.80
2019-05-26T13:55:01.225Z,2.03
2019-05-26T13:57:31.604Z,2.50
2019-05-26T14:00:02.149Z,1.57
2019-05-26T14:02:32.583Z,1.57
2019-05-26T14:05:02.996Z,1.43
2019-05-26T14:07:33.325Z,1.20
2019-05-26T14:10:03.889Z,1.70
2019-05-26T14:12:34.296Z,2.93
2019-05-26T14:15:05.104Z,1.50
2019-05-26T14:17:36.251Z,7.53
2019-05-26T14:20:07.428Z,1.80
2019-05-26T14:22:37.834Z,1.50
2019-05-26T14:25:09.673Z,2.73
2019-05-26T14:27:40.044Z,1.77
2019-05-26T14:30:10.753Z,1.80
2019-05-26T14:32:41.127Z,1.70
2019-05-26T14:35:11.608Z,1.60
2019-05-26T14:37:41.956Z,1.73
2019-05-26T14:40:12.487Z,3.70
2019-05-26T14:42:42.926Z,1.57
2019-05-26T14:45:13.600Z,1.40
2019-05-26T14:47:44.120Z,1.60
2019-05-26T14:50:15.847Z,1.70
2019-05-26T14:52:46.291Z,1.60
2019-05-26T14:55:16.752Z,1.93
2019-05-26T14:57:47.169Z,1.97
2019-05-26T15:00:19.272Z,1.90
2019-05-26T15:02:49.658Z,1.30
2019-05-26T15:05:20.111Z,1.47
2019-05-26T15:07:50.534Z,1.80
2019-05-26T15:10:22.706Z,1.60
2019-05-26T15:12:53.411Z,1.73
2019-05-26T15:15:23.755Z,1.93
2019-05-26T15:17:54.079Z,1.53
2019-05-26T15:20:24.431Z,3.53
2019-05-26T15:22:54.807Z,1.60
2019-05-26T15:25:25.182Z,2.80
2019-05-26T15:27:55.523Z,1.57
2019-05-26T15:30:25.903Z,1.50
2019-05-26T15:32:56.296Z,1.30
2019-05-26T15:35:26.629Z,1.40
2019-05-26T15:37:56.943Z,1.30
2019-05-26T15:40:27.354Z,1.40
2019-05-26T15:42:57.732Z,1.40
2019-05-26T15:45:28.128Z,1.40
2019-05-26T15:47:58.591Z,1.33
2019-05-26T15:50:28.949Z,1.50
2019-05-26T15:52:59.360Z,1.70
2019-05-26T15:55:29.735Z,1.20
2019-05-26T15:58:00.116Z,1.30
2019-05-26T16:00:30.527Z,1.30
2019-05-26T16:03:00.918Z,3.53
2019-05-26T16:05:31.421Z,1.73
2019-05-26T16:08:01.775Z,1.50
2019-05-26T16:10:32.148Z,2.50
2019-05-26T16:13:02.603Z,1.80
2019-05-26T16:15:33.070Z,1.70
2019-05-26T16:18:03.529Z,2.00
2019-05-26T16:20:34.001Z,1.70
2019-05-26T16:23:04.404Z,3.17
2019-05-26T16:25:34.802Z,6.10
2019-05-26T16:28:05.218Z,2.80
2019-05-26T16:30:35.689Z,1.40
2019-05-26T16:33:06.095Z,1.50
2019-05-26T16:35:36.527Z,1.30
2019-05-26T16:38:07.101Z,1.30
2019-05-26T16:40:37.485Z,2.30
2019-05-26T16:43:07.855Z,2.47
2019-05-26T16:45:38.238Z,1.50
2019-05-26T16:48:08.589Z,1.80
2019-05-26T16:50:39.082Z,3.30
2019-05-26T16:53:09.458Z,1.50
2019-05-26T16:55:39.851Z,1.67
2019-05-26T16:58:10.275Z,1.80
2019-05-26T17:00:40.730Z,2.03
2019-05-26T17:03:11.147Z,1.50
2019-05-26T17:05:41.471Z,1.70
2019-05-26T17:08:11.827Z,1.40
2019-05-26T17:10:42.204Z,3.10
2019-05-26T17:13:12.578Z,1.50
2019-05-26T17:15:42.927Z,1.80
2019-05-26T17:18:13.343Z,1.50
2019-05-26T17:20:43.830Z,1.90
2019-05-26T17:23:14.195Z,1.70
2019-05-26T17:25:44.588Z,2.80
2019-05-26T17:28:14.971Z,1.70
2019-05-26T17:30:45.367Z,6.80
2019-05-26T17:33:15.672Z,1.60
2019-05-26T17:35:47.146Z,1.63
2019-05-26T17:38:17.464Z,1.60
2019-05-26T17:40:47.867Z,1.90
2019-05-26T17:43:18.237Z,1.93
2019-05-26T17:45:48.635Z,1.63
2019-05-26T17:48:18.977Z,1.60
2019-05-26T17:50:49.382Z,2.50
2019-05-26T17:53:19.763Z,1.77
2019-05-26T17:55:50.153Z,2.10
2019-05-26T17:58:20.478Z,1.90
2019-05-26T18:00:51.113Z,2.20
2019-05-26T18:03:21.574Z,2.13
2019-05-26T18:05:52.042Z,2.00
2019-05-26T18:08:22.484Z,3.90
2019-05-26T18:10:52.840Z,2.57
2019-05-26T18:13:23.183Z,3.40
2019-05-26T18:15:53.699Z,1.87
2019-05-26T18:18:24.243Z,1.80
2019-05-26T18:20:54.647Z,1.67
2019-05-26T18:23:25.035Z,1.80
2019-05-26T18:25:55.403Z,1.90
2019-05-26T18:28:25.821Z,1.60
2019-05-26T18:30:56.198Z,2.20
2019-05-26T18:33:26.702Z,1.90
2019-05-26T18:35:57.188Z,4.50
2019-05-26T18:38:27.611Z,2.13
2019-05-26T18:40:58.061Z,2.10
2019-05-26T18:43:28.522Z,1.93
2019-05-26T18:45:58.819Z,1.93
2019-05-26T18:48:29.238Z,1.63
2019-05-26T18:50:59.594Z,2.10
2019-05-26T18:53:30.050Z,1.77
2019-05-26T18:56:00.614Z,1.80
2019-05-26T18:58:30.996Z,1.80
2019-05-26T19:01:01.372Z,2.20
2019-05-26T19:03:31.738Z,1.90
2019-05-26T19:06:02.064Z,2.00
2019-05-26T19:08:32.520Z,1.80
2019-05-26T19:11:02.953Z,2.13
2019-05-26T19:13:33.456Z,1.80
2019-05-26T19:16:03.835Z,2.00
2019-05-26T19:18:34.219Z,2.00
2019-05-26T19:21:04.708Z,2.53
2019-05-26T19:23:35.125Z,2.70
2019-05-26T19:26:05.671Z,2.40
2019-05-26T19:28:36.001Z,2.00
2019-05-26T19:31:06.392Z,2.23
2019-05-26T19:33:36.892Z,2.50
2019-05-26T19:36:09.290Z,3.10
2019-05-26T19:38:39.381Z,4.70
2019-05-26T19:41:10.135Z,2.50
2019-05-26T19:43:40.586Z,2.73
2019-05-26T19:46:11.006Z,3.50
2019-05-26T19:48:41.427Z,2.60
2019-05-26T19:51:11.760Z,3.13
2019-05-26T19:53:42.166Z,3.47
2019-05-26T19:56:12.595Z,3.30
2019-05-26T19:58:42.945Z,3.03
2019-05-26T20:01:13.389Z,2.80
2019-05-26T20:03:43.834Z,3.13
2019-05-26T20:06:14.222Z,3.37
2019-05-26T20:08:44.661Z,2.83
2019-05-26T20:11:15.110Z,5.43
2019-05-26T20:13:45.623Z,3.90
2019-05-26T20:16:16.037Z,4.30
2019-05-26T20:18:46.463Z,3.57
2019-05-26T20:21:16.900Z,4.57
2019-05-26T20:23:47.215Z,3.37
2019-05-26T20:26:17.626Z,3.20
2019-05-26T20:28:47.986Z,3.30
2019-05-26T20:31:18.350Z,2.80
2019-05-26T20:33:48.727Z,3.07
2019-05-26T20:36:19.160Z,3.80
2019-05-26T20:38:49.731Z,3.33
2019-05-26T20:41:20.233Z,3.60
2019-05-26T20:43:50.644Z,3.33
2019-05-26T20:46:21.248Z,3.27
2019-05-26T20:48:51.637Z,3.20
2019-05-26T20:51:21.982Z,2.90
2019-05-26T20:53:52.283Z,2.63
2019-05-26T20:56:22.684Z,2.83
2019-05-26T20:58:53.005Z,2.57
2019-05-26T21:01:23.452Z,3.43
2019-05-26T21:03:53.775Z,3.03
2019-05-26T21:06:24.200Z,3.33
2019-05-26T21:08:54.559Z,3.23
2019-05-26T21:11:26.064Z,3.17
2019-05-26T21:13:56.411Z,3.30
2019-05-26T21:16:26.793Z,3.60
2019-05-26T21:18:57.271Z,3.47
2019-05-26T21:21:27.752Z,4.07
2019-05-26T21:23:58.116Z,3.63
2019-05-26T21:26:28.579Z,4.37
2019-05-26T21:28:59.068Z,3.80
2019-05-26T21:31:29.611Z,3.33
2019-05-26T21:34:00.178Z,3.97
2019-05-26T21:36:30.667Z,4.00
2019-05-26T21:39:01.356Z,3.40
2019-05-26T21:41:32.039Z,6.90
2019-05-26T21:44:02.415Z,3.17
2019-05-26T21:46:32.828Z,3.57
2019-05-26T21:49:03.327Z,3.50
2019-05-26T21:51:33.799Z,3.50
2019-05-26T21:54:04.424Z,4.03
2019-05-26T21:56:35.010Z,4.20
2019-05-26T21:59:05.581Z,3.30
2019-05-26T22:01:36.093Z,3.53
2019-05-26T22:04:07.021Z,3.63
2019-05-26T22:06:37.522Z,6.70
2019-05-26T22:09:08.399Z,3.57
2019-05-26T22:11:38.904Z,3.77
2019-05-26T22:14:09.449Z,4.10
2019-05-26T22:16:40.046Z,3.53
2019-05-26T22:19:10.505Z,3.70
2019-05-26T22:21:41.005Z,3.83
2019-05-26T22:24:11.499Z,3.97
2019-05-26T22:26:42.111Z,3.53
2019-05-26T22:29:13.377Z,4.27
2019-05-26T22:31:43.891Z,3.77
2019-05-26T22:34:14.311Z,3.40
2019-05-26T22:36:44.850Z,3.17
2019-05-26T22:39:15.371Z,4.00
2019-05-26T22:41:45.907Z,3.40
2019-05-26T22:44:16.327Z,3.77
2019-05-26T22:46:46.763Z,4.17
2019-05-26T22:49:17.184Z,3.10
2019-05-26T22:51:47.734Z,4.57
2019-05-26T22:54:18.261Z,3.90
2019-05-26T22:56:48.856Z,3.77
2019-05-26T22:59:19.338Z,4.47
2019-05-26T23:01:49.836Z,3.77
2019-05-26T23:04:20.365Z,3.70
2019-05-26T23:06:50.917Z,3.43
2019-05-26T23:09:21.327Z,3.70
2019-05-26T23:11:51.843Z,3.77
2019-05-26T23:14:22.296Z,3.80
2019-05-26T23:16:52.804Z,3.27
2019-05-26T23:19:23.367Z,3.40
2019-05-26T23:21:53.862Z,4.40
2019-05-26T23:24:24.432Z,3.20
2019-05-26T23:26:54.951Z,3.40
2019-05-26T23:29:27.302Z,2.73
2019-05-26T23:31:57.771Z,3.53
2019-05-26T23:34:28.309Z,2.53
2019-05-26T23:36:58.787Z,3.57
2019-05-26T23:39:29.344Z,3.23
2019-05-26T23:41:59.767Z,2.83
2019-05-26T23:44:30.204Z,2.60
2019-05-26T23:47:00.690Z,3.57
2019-05-26T23:49:31.343Z,3.23
2019-05-26T23:52:01.776Z,2.63
2019-05-26T23:54:33.453Z,3.00
2019-05-26T23:57:04.135Z,2.77
2019-05-26T23:59:34.659Z,3.47
